Terminal Aerodrome Forecast
Issued by NWS

Home | Current Version | Previous Version | Text Only | Print | Product List | Glossary On
Versions: 1 2 3 4 5 6 7 8 9 10 11 12 13 14 15 16 17 18 19 20 21 22 23 24 25 26
000
FTUS45 KBOU 280535
TAFAPA
TAF
KAPA 280535Z 2806/2906 20007KT P6SM SCT100 BKN200
     FM281400 30007KT P6SM FEW120 SCT200
     FM281600 36009KT P6SM FEW070 SCT120
     FM281900 04009KT P6SM SCT070 SCT120
     FM282200 08010KT P6SM SCT080 BKN140
      TEMPO 2822/2902 VRB20G30KT TSRA BKN060CB
     FM290300 15010KT P6SM SCT080 BKN140=

USA.gov is the U.S. government's official web portal to all federal, state and local government web resources and services.